Time;durP1;ratioP1;P1;durP2;ratioP2;P2;SDS_P1;SDS_P2;PMS_P1;PMS_P2;Temp;Humidity;BMP_temperature;BMP_pressure;BME280_temperature;BME280_humidity;BME280_pressure;Samples;Min_cycle;Max_cycle;Signal;HPM_P1;HPM_P2
2023/03/17 00:00:46;;;;;;;3.17;1.27;;;;;;;;;;5121496;27;20024;-47
2023/03/17 00:03:24;;;;;;;3.17;1.20;;;;;;;;;;5107163;28;20455;-45
2023/03/17 00:05:53;;;;;;;4.90;1.58;;;;;;;;;;5105909;28;20019;-46
2023/03/17 00:08:21;;;;;;;1.80;1.00;;;;;;;;;;5106185;28;20024;-49
2023/03/17 00:10:47;;;;;;;3.92;1.10;;;;;;;;;;5116799;27;20166;-48
2023/03/17 00:13:14;;;;;;;5.15;1.10;;;;;;;;;;5126464;27;20552;-48
2023/03/17 00:15:40;;;;;;;3.90;1.23;;;;;;;;;;5126917;27;20034;-47
2023/03/17 00:18:13;;;;;;;4.80;1.10;;;;;;;;;;5126277;27;20030;-47
2023/03/17 00:20:41;;;;;;;6.90;2.00;;;;;;;;;;5127040;27;20012;-46
2023/03/17 00:23:13;;;;;;;4.72;1.10;;;;;;;;;;5126705;27;20034;-48
2023/03/17 00:25:42;;;;;;;2.58;1.05;;;;;;;;;;5127051;27;20110;-48
2023/03/17 00:28:12;;;;;;;4.40;1.30;;;;;;;;;;5127019;27;20030;-47
2023/03/17 00:30:38;;;;;;;3.75;1.20;;;;;;;;;;5126865;27;20032;-48
2023/03/17 00:33:05;;;;;;;4.85;1.50;;;;;;;;;;5126394;27;20432;-48
2023/03/17 00:35:32;;;;;;;6.38;1.40;;;;;;;;;;5126211;27;20027;-47
2023/03/17 00:37:58;;;;;;;3.38;1.27;;;;;;;;;;5126594;27;20031;-47
2023/03/17 00:40:29;;;;;;;2.65;1.17;;;;;;;;;;5126178;27;20034;-47
2023/03/17 00:42:56;;;;;;;2.90;1.20;;;;;;;;;;5126294;27;20547;-48
2023/03/17 00:45:23;;;;;;;4.13;1.23;;;;;;;;;;5126331;28;20027;-48
2023/03/17 00:47:49;;;;;;;3.92;1.33;;;;;;;;;;5125817;28;20084;-49
2023/03/17 00:50:17;;;;;;;2.97;0.90;;;;;;;;;;5126198;28;20405;-48
2023/03/17 00:52:44;;;;;;;1.65;0.90;;;;;;;;;;5125981;28;20524;-50
2023/03/17 00:55:11;;;;;;;5.18;1.30;;;;;;;;;;5126434;28;20100;-46
2023/03/17 00:57:38;;;;;;;4.63;1.17;;;;;;;;;;5129612;27;20031;-49
2023/03/17 01:00:05;;;;;;;4.65;1.10;;;;;;;;;;5130362;27;20020;-46
2023/03/17 01:02:31;;;;;;;3.20;1.00;;;;;;;;;;5130031;27;20023;-46
2023/03/17 06:12:33;;;;;;;2.30;0.80;;;;;;;;;;5119619;27;20493;-48
2023/03/17 06:14:59;;;;;;;1.17;0.70;;;;;;;;;;5110316;28;20027;-47
2023/03/17 06:17:25;;;;;;;1.88;0.70;;;;;;;;;;5111400;28;20600;-51
2023/03/17 06:19:51;;;;;;;0.88;0.50;;;;;;;;;;5111535;28;20056;-49
2023/03/17 06:22:17;;;;;;;0.65;0.50;;;;;;;;;;5109814;28;20118;-46
2023/03/17 06:24:43;;;;;;;1.13;0.50;;;;;;;;;;5110324;28;20103;-48
2023/03/17 06:27:09;;;;;;;0.63;0.50;;;;;;;;;;5110462;28;20035;-48
2023/03/17 06:29:36;;;;;;;1.92;0.70;;;;;;;;;;5109487;28;20514;-49
2023/03/17 06:32:03;;;;;;;1.30;0.50;;;;;;;;;;5109437;28;20024;-47
2023/03/17 06:34:29;;;;;;;0.60;0.60;;;;;;;;;;5110113;28;20425;-47
2023/03/17 06:36:55;;;;;;;1.55;0.50;;;;;;;;;;5109555;28;20027;-46
2023/03/17 06:39:22;;;;;;;1.05;0.43;;;;;;;;;;5109658;28;20023;-48
2023/03/17 06:41:48;;;;;;;1.05;0.70;;;;;;;;;;5109491;28;20031;-47
2023/03/17 06:44:14;;;;;;;1.90;0.75;;;;;;;;;;5106476;28;20028;-48
2023/03/17 06:46:40;;;;;;;0.90;0.60;;;;;;;;;;5108922;28;20041;-47
2023/03/17 06:49:06;;;;;;;1.10;0.50;;;;;;;;;;5107850;28;20031;-46
2023/03/17 06:51:36;;;;;;;0.77;0.60;;;;;;;;;;5108358;28;20499;-47
2023/03/17 06:54:02;;;;;;;1.88;0.63;;;;;;;;;;5106491;28;20032;-46
2023/03/17 06:56:28;;;;;;;0.43;0.40;;;;;;;;;;5108494;28;20032;-49
2023/03/17 06:58:54;;;;;;;1.98;0.68;;;;;;;;;;5107314;28;20216;-47
2023/03/17 07:01:21;;;;;;;1.38;0.70;;;;;;;;;;5108257;28;20053;-48
2023/03/17 07:03:48;;;;;;;1.85;0.90;;;;;;;;;;5106380;28;20034;-49
2023/03/17 07:06:14;;;;;;;2.67;1.02;;;;;;;;;;5107382;28;20027;-47
2023/03/17 07:08:40;;;;;;;1.83;0.80;;;;;;;;;;5107376;28;20027;-50
2023/03/17 07:11:06;;;;;;;2.58;0.93;;;;;;;;;;5107703;28;20062;-51
2023/03/17 07:13:35;;;;;;;2.45;0.77;;;;;;;;;;5107137;28;20036;-49
2023/03/17 07:16:02;;;;;;;3.50;0.90;;;;;;;;;;5088837;28;20403;-47
2023/03/17 07:18:30;;;;;;;1.45;0.95;;;;;;;;;;5107316;28;20125;-48
2023/03/17 07:20:58;;;;;;;2.17;0.82;;;;;;;;;;5107794;27;20027;-48
2023/03/17 07:23:24;;;;;;;5.03;0.88;;;;;;;;;;5107254;28;20019;-48
2023/03/17 07:25:51;;;;;;;0.98;0.80;;;;;;;;;;5107346;28;20028;-48
2023/03/17 07:28:18;;;;;;;3.58;0.90;;;;;;;;;;5108379;27;20034;-48
2023/03/17 07:30:45;;;;;;;3.83;1.17;;;;;;;;;;5090090;28;20471;-48
2023/03/17 07:33:21;;;;;;;1.35;0.90;;;;;;;;;;5109108;28;20427;-47
2023/03/17 07:35:48;;;;;;;1.55;0.88;;;;;;;;;;5109317;28;20394;-48
2023/03/17 07:38:15;;;;;;;0.95;0.75;;;;;;;;;;5110103;28;20476;-47
2023/03/17 07:40:41;;;;;;;2.35;0.90;;;;;;;;;;5109820;28;20015;-47
2023/03/17 07:43:08;;;;;;;1.20;0.80;;;;;;;;;;5109791;28;20034;-47
2023/03/17 07:45:34;;;;;;;0.75;0.60;;;;;;;;;;5109735;28;20035;-49
2023/03/17 07:48:01;;;;;;;3.28;1.00;;;;;;;;;;5109589;28;20467;-51
2023/03/17 07:50:27;;;;;;;1.48;1.00;;;;;;;;;;5109724;28;20059;-49
2023/03/17 07:52:54;;;;;;;3.38;1.30;;;;;;;;;;5109057;28;20053;-49
2023/03/17 07:55:21;;;;;;;2.30;0.95;;;;;;;;;;5109514;28;20052;-48
2023/03/17 07:57:47;;;;;;;3.42;1.00;;;;;;;;;;5103780;28;20486;-48
2023/03/17 08:00:13;;;;;;;2.10;1.10;;;;;;;;;;5108141;28;20028;-48
2023/03/17 08:02:40;;;;;;;1.73;0.90;;;;;;;;;;5108759;28;20070;-49
2023/03/17 08:05:07;;;;;;;2.67;1.00;;;;;;;;;;5109458;28;20028;-48
2023/03/17 08:07:33;;;;;;;2.40;0.93;;;;;;;;;;5109245;28;20077;-51
2023/03/17 08:09:59;;;;;;;3.33;1.02;;;;;;;;;;5109228;28;20051;-49
2023/03/17 08:12:25;;;;;;;3.58;1.20;;;;;;;;;;5108803;28;20466;-51
2023/03/17 08:14:51;;;;;;;2.80;1.02;;;;;;;;;;5108099;28;20024;-49
2023/03/17 08:17:18;;;;;;;3.00;1.10;;;;;;;;;;5108791;28;20556;-47
2023/03/17 08:19:44;;;;;;;2.72;1.30;;;;;;;;;;5090555;28;20055;-48
2023/03/17 08:22:11;;;;;;;1.85;0.80;;;;;;;;;;5109157;28;20445;-51
2023/03/17 08:24:38;;;;;;;1.50;0.95;;;;;;;;;;5107589;28;20016;-50
2023/03/17 08:27:04;;;;;;;2.45;0.88;;;;;;;;;;5106619;28;20467;-51
2023/03/17 08:29:31;;;;;;;3.05;1.08;;;;;;;;;;5107796;28;20023;-50
2023/03/17 08:31:58;;;;;;;1.63;0.98;;;;;;;;;;5107162;28;20031;-50
2023/03/17 08:34:25;;;;;;;0.73;0.60;;;;;;;;;;5107268;28;20432;-50
2023/03/17 08:36:51;;;;;;;1.75;1.00;;;;;;;;;;5107305;28;20049;-51
2023/03/17 08:39:18;;;;;;;1.95;0.93;;;;;;;;;;5106897;28;20459;-50
2023/03/17 08:41:44;;;;;;;3.67;0.98;;;;;;;;;;5107229;28;20023;-48
2023/03/17 08:44:12;;;;;;;1.50;0.90;;;;;;;;;;5107688;28;20020;-50
2023/03/17 08:46:39;;;;;;;2.40;1.33;;;;;;;;;;5107772;28;20111;-48
2023/03/17 08:49:05;;;;;;;1.55;0.73;;;;;;;;;;5107791;28;20057;-49
2023/03/17 08:51:33;;;;;;;3.97;0.85;;;;;;;;;;5107465;28;20030;-50
2023/03/17 08:53:59;;;;;;;1.55;0.75;;;;;;;;;;5107255;28;20467;-47
2023/03/17 08:56:25;;;;;;;2.05;0.93;;;;;;;;;;5107338;28;20031;-48
2023/03/17 08:58:53;;;;;;;3.53;0.90;;;;;;;;;;5107134;28;20099;-49
2023/03/17 09:01:20;;;;;;;3.17;1.10;;;;;;;;;;5106692;28;20417;-49
2023/03/17 09:03:46;;;;;;;1.42;0.70;;;;;;;;;;5107105;28;20023;-49
2023/03/17 09:06:12;;;;;;;2.15;0.80;;;;;;;;;;5107140;28;20031;-49
2023/03/17 09:08:43;;;;;;;0.90;0.60;;;;;;;;;;5107444;28;20051;-49
2023/03/17 09:11:11;;;;;;;1.85;0.93;;;;;;;;;;5106949;28;20114;-48
2023/03/17 09:13:37;;;;;;;1.95;0.90;;;;;;;;;;5106552;28;20036;-50
2023/03/17 09:16:03;;;;;;;2.88;0.90;;;;;;;;;;5106612;28;20019;-49
2023/03/17 09:18:31;;;;;;;2.40;0.93;;;;;;;;;;5109072;28;20020;-50
2023/03/17 09:20:59;;;;;;;3.33;0.98;;;;;;;;;;5110589;28;20493;-50
2023/03/17 09:23:27;;;;;;;2.95;0.90;;;;;;;;;;5100024;28;20032;-49
2023/03/17 09:25:53;;;;;;;1.90;0.80;;;;;;;;;;5111189;28;20056;-48
2023/03/17 09:28:19;;;;;;;3.65;0.98;;;;;;;;;;5091631;28;20376;-50
2023/03/17 09:30:45;;;;;;;1.65;0.80;;;;;;;;;;5110741;28;20101;-48
2023/03/17 09:33:12;;;;;;;2.10;0.88;;;;;;;;;;5110758;28;20032;-47
2023/03/17 09:35:38;;;;;;;0.93;0.63;;;;;;;;;;5110893;28;20024;-49
2023/03/17 09:38:05;;;;;;;2.17;0.73;;;;;;;;;;5110231;28;20028;-49
2023/03/17 09:40:33;;;;;;;5.32;1.17;;;;;;;;;;5111020;28;20035;-49
2023/03/17 09:43:17;;;;;;;1.35;0.73;;;;;;;;;;5110240;28;20031;-49
2023/03/17 09:45:44;;;;;;;1.77;0.90;;;;;;;;;;5109895;28;20031;-48
2023/03/17 09:48:28;;;;;;;3.13;0.85;;;;;;;;;;5110283;28;20027;-50
2023/03/17 09:50:55;;;;;;;;;;;;;;;;;;5110978;28;20066;-49
2023/03/17 09:53:26;;;;;;;1.70;0.77;;;;;;;;;;5110380;28;20382;-47
2023/03/17 09:55:54;;;;;;;2.80;1.05;;;;;;;;;;5109060;28;20032;-49
2023/03/17 09:58:25;;;;;;;2.63;0.75;;;;;;;;;;5109936;28;20103;-48
2023/03/17 10:00:51;;;;;;;4.57;1.00;;;;;;;;;;5109611;28;20547;-50
2023/03/17 10:03:18;;;;;;;2.45;0.80;;;;;;;;;;5109970;28;20043;-48
2023/03/17 10:05:45;;;;;;;1.38;0.93;;;;;;;;;;5109761;28;20509;-48
2023/03/17 10:08:21;;;;;;;3.83;1.00;;;;;;;;;;5108921;28;20085;-51
2023/03/17 10:10:47;;;;;;;2.88;0.90;;;;;;;;;;5109846;28;20020;-51
2023/03/17 10:13:29;;;;;;;6.57;1.20;;;;;;;;;;5125538;27;20381;-51
2023/03/17 10:15:58;;;;;;;1.33;0.70;;;;;;;;;;5131095;27;20061;-49
2023/03/17 10:18:27;;;;;;;2.63;0.70;;;;;;;;;;5130602;27;20562;-48
2023/03/17 10:20:54;;;;;;;2.35;0.70;;;;;;;;;;5130416;27;20470;-50
2023/03/17 10:23:24;;;;;;;1.60;0.85;;;;;;;;;;5130538;27;20034;-50
2023/03/17 10:25:50;;;;;;;1.38;1.10;;;;;;;;;;5130312;27;20094;-49
2023/03/17 10:28:19;;;;;;;2.00;1.00;;;;;;;;;;5129498;27;20150;-48
2023/03/17 10:30:45;;;;;;;3.85;0.88;;;;;;;;;;5129448;27;20079;-51
2023/03/17 10:33:11;;;;;;;1.98;0.90;;;;;;;;;;5130445;27;20031;-50
2023/03/17 10:35:39;;;;;;;2.95;1.02;;;;;;;;;;5130792;27;20072;-47
2023/03/17 10:38:25;;;;;;;1.75;0.82;;;;;;;;;;5130113;27;20027;-50
2023/03/17 10:40:57;;;;;;;6.13;1.15;;;;;;;;;;5130098;27;20031;-50
2023/03/17 10:43:27;;;;;;;2.55;0.88;;;;;;;;;;5130063;27;20110;-49
2023/03/17 10:46:01;;;;;;;3.08;0.98;;;;;;;;;;5130153;27;20254;-48
2023/03/17 10:48:34;;;;;;;1.65;0.75;;;;;;;;;;5128395;27;20026;-49
2023/03/17 10:51:05;;;;;;;2.28;0.88;;;;;;;;;;5111035;28;20051;-49
2023/03/17 10:53:36;;;;;;;1.55;0.80;;;;;;;;;;5121652;27;20042;-48
2023/03/17 10:56:15;;;;;;;1.45;0.90;;;;;;;;;;5130903;27;20031;-49
2023/03/17 10:58:47;;;;;;;2.03;0.88;;;;;;;;;;5131279;27;20084;-50
2023/03/17 11:01:20;;;;;;;2.35;0.60;;;;;;;;;;5130063;27;20020;-48
2023/03/17 11:03:48;;;;;;;2.88;1.00;;;;;;;;;;5129684;27;20027;-51
2023/03/17 11:06:15;;;;;;;4.20;1.00;;;;;;;;;;5129748;27;20457;-49
2023/03/17 11:08:49;;;;;;;1.73;1.00;;;;;;;;;;5129630;27;20035;-51
2023/03/17 11:11:25;;;;;;;2.28;0.90;;;;;;;;;;5129233;27;20629;-49
2023/03/17 11:13:51;;;;;;;2.58;0.80;;;;;;;;;;5109693;27;20040;-48
2023/03/17 11:16:21;;;;;;;2.50;0.95;;;;;;;;;;5107883;28;20057;-49
2023/03/17 11:18:47;;;;;;;2.00;0.90;;;;;;;;;;5108767;28;20447;-49
2023/03/17 11:21:26;;;;;;;3.28;0.85;;;;;;;;;;5108956;28;20144;-52
2023/03/17 11:23:53;;;;;;;2.92;0.82;;;;;;;;;;5108744;28;20511;-47
2023/03/17 11:26:26;;;;;;;2.42;1.08;;;;;;;;;;5108615;28;20064;-49
2023/03/17 11:29:02;;;;;;;2.42;0.90;;;;;;;;;;5108614;28;20032;-50
2023/03/17 11:31:31;;;;;;;1.77;0.90;;;;;;;;;;5108642;28;20095;-53
2023/03/17 11:34:04;;;;;;;1.92;0.90;;;;;;;;;;5108785;28;20031;-49
2023/03/17 11:36:38;;;;;;;2.05;0.75;;;;;;;;;;5108532;28;20020;-50
2023/03/17 11:39:11;;;;;;;4.97;0.90;;;;;;;;;;5108500;28;20028;-48
2023/03/17 11:41:40;;;;;;;4.47;1.13;;;;;;;;;;5107367;28;20021;-49
2023/03/17 11:44:26;;;;;;;4.45;1.13;;;;;;;;;;5107794;28;20122;-48
2023/03/17 11:46:53;;;;;;;3.58;0.98;;;;;;;;;;5107580;28;20524;-49
2023/03/17 11:49:21;;;;;;;2.03;0.90;;;;;;;;;;5108183;28;20058;-48
2023/03/17 11:51:58;;;;;;;3.92;0.82;;;;;;;;;;5108237;28;20023;-48
2023/03/17 11:54:24;;;;;;;2.83;1.00;;;;;;;;;;5104594;28;20027;-50
2023/03/17 11:56:50;;;;;;;4.22;0.93;;;;;;;;;;5096272;28;20036;-51
2023/03/17 11:59:16;;;;;;;3.35;0.90;;;;;;;;;;5109144;28;20750;-50
2023/03/17 12:02:12;;;;;;;1.40;0.93;;;;;;;;;;5109531;28;20140;-47
2023/03/17 12:04:43;;;;;;;5.38;1.48;;;;;;;;;;5073463;28;20035;-48
2023/03/17 12:07:20;;;;;;;3.15;1.30;;;;;;;;;;5109157;28;20540;-51
2023/03/17 12:09:50;;;;;;;2.05;1.10;;;;;;;;;;5106831;28;20111;-48
2023/03/17 12:12:28;;;;;;;1.33;0.90;;;;;;;;;;5107317;28;20027;-48
2023/03/17 12:14:55;;;;;;;6.25;1.95;;;;;;;;;;5105535;28;20031;-49
2023/03/17 12:17:24;;;;;;;2.30;1.02;;;;;;;;;;5106283;28;20537;-50
2023/03/17 12:20:09;;;;;;;3.13;1.23;;;;;;;;;;5106519;28;20494;-52
2023/03/17 12:22:41;;;;;;;2.03;1.00;;;;;;;;;;5106719;28;20099;-49
2023/03/17 12:25:18;;;;;;;4.28;1.15;;;;;;;;;;5107366;28;20028;-48
2023/03/17 12:28:07;;;;;;;1.88;0.90;;;;;;;;;;5106236;28;20024;-51
2023/03/17 12:30:47;;;;;;;2.35;1.20;;;;;;;;;;5106153;28;20027;-49
2023/03/17 12:33:19;;;;;;;4.00;1.08;;;;;;;;;;5106517;28;20483;-51
2023/03/17 12:35:45;;;;;;;3.13;1.50;;;;;;;;;;5106850;28;20032;-50
2023/03/17 12:38:26;;;;;;;3.05;1.20;;;;;;;;;;5107390;28;20027;-51
2023/03/17 12:41:05;;;;;;;1.20;0.88;;;;;;;;;;5107149;28;20032;-50
2023/03/17 12:43:34;;;;;;;4.80;1.45;;;;;;;;;;5107109;28;20115;-48
2023/03/17 12:46:10;;;;;;;2.58;0.88;;;;;;;;;;5105401;28;20032;-48
2023/03/17 12:48:42;;;;;;;1.45;0.88;;;;;;;;;;5105068;28;20179;-51
2023/03/17 12:51:27;;;;;;;2.85;1.55;;;;;;;;;;5107179;28;20031;-49
2023/03/17 12:53:54;;;;;;;5.38;1.63;;;;;;;;;;5106672;28;20027;-47
2023/03/17 12:56:30;;;;;;;3.97;1.38;;;;;;;;;;5106191;28;20024;-49
2023/03/17 12:59:04;;;;;;;4.18;1.80;;;;;;;;;;5105438;28;20094;-48
2023/03/17 13:01:37;;;;;;;4.25;1.60;;;;;;;;;;5105906;28;20246;-49
2023/03/17 13:04:23;;;;;;;2.15;1.42;;;;;;;;;;5105485;28;20026;-48
2023/03/17 13:07:05;;;;;;;5.28;1.58;;;;;;;;;;5106115;28;20028;-47
2023/03/17 13:09:31;;;;;;;2.70;1.20;;;;;;;;;;5105808;28;20427;-49
2023/03/17 13:11:57;;;;;;;3.53;1.48;;;;;;;;;;5108646;28;20043;-48
2023/03/17 13:14:41;;;;;;;3.42;1.60;;;;;;;;;;5125935;28;20028;-49
2023/03/17 13:17:16;;;;;;;1.80;1.20;;;;;;;;;;5125874;27;20027;-48
2023/03/17 13:20:01;;;;;;;2.97;1.38;;;;;;;;;;5125989;28;20281;-48
2023/03/17 13:22:59;;;;;;;2.08;1.25;;;;;;;;;;5125836;28;20231;-48
2023/03/17 13:25:40;;;;;;;2.42;1.40;;;;;;;;;;5125400;28;20050;-48
2023/03/17 13:28:12;;;;;;;4.90;1.23;;;;;;;;;;5125778;28;20104;-49
2023/03/17 13:30:38;;;;;;;2.40;1.52;;;;;;;;;;5125849;28;20027;-49
2023/03/17 13:33:10;;;;;;;2.53;1.45;;;;;;;;;;5125794;28;20030;-48
2023/03/17 13:35:45;;;;;;;2.58;1.30;;;;;;;;;;5125624;28;20494;-48
2023/03/17 13:38:27;;;;;;;3.03;1.88;;;;;;;;;;5125816;28;20019;-49
2023/03/17 13:41:02;;;;;;;6.65;1.63;;;;;;;;;;5125271;28;20394;-49
2023/03/17 13:43:31;;;;;;;2.55;1.20;;;;;;;;;;5125634;28;20027;-50
2023/03/17 13:46:17;;;;;;;3.38;1.63;;;;;;;;;;5125541;28;20468;-50
2023/03/17 13:48:43;;;;;;;2.75;1.50;;;;;;;;;;5125821;28;20110;-50
2023/03/17 13:51:12;;;;;;;2.28;1.60;;;;;;;;;;5125574;28;20204;-47
2023/03/17 13:53:43;;;;;;;2.58;1.63;;;;;;;;;;5125778;27;20027;-49
2023/03/17 13:56:15;;;;;;;2.67;1.33;;;;;;;;;;5125405;28;20027;-49
2023/03/17 13:59:04;;;;;;;5.95;1.60;;;;;;;;;;5125650;28;20019;-48
2023/03/17 14:01:42;;;;;;;2.97;1.40;;;;;;;;;;5117349;27;20055;-48
2023/03/17 14:04:40;;;;;;;6.15;1.50;;;;;;;;;;5127398;27;20043;-48
2023/03/17 14:07:13;;;;;;;4.18;1.70;;;;;;;;;;5084237;28;20032;-47
2023/03/17 14:09:41;;;;;;;3.20;1.77;;;;;;;;;;5109125;28;20012;-49
2023/03/17 14:12:25;;;;;;;2.45;1.20;;;;;;;;;;5103434;27;20105;-49
2023/03/17 14:14:59;;;;;;;2.35;1.70;;;;;;;;;;5088048;28;20020;-52
2023/03/17 14:17:28;;;;;;;1.92;1.38;;;;;;;;;;5087955;28;20102;-52
2023/03/17 14:20:00;;;;;;;2.58;1.40;;;;;;;;;;5088110;28;20024;-48
2023/03/17 14:22:26;;;;;;;5.70;1.70;;;;;;;;;;5087991;28;20042;-51
2023/03/17 14:24:53;;;;;;;4.63;1.60;;;;;;;;;;5087677;28;20042;-51
2023/03/17 14:27:19;;;;;;;2.45;1.65;;;;;;;;;;5087834;28;20024;-51
2023/03/17 14:29:46;;;;;;;2.70;1.40;;;;;;;;;;5087754;28;20041;-50
2023/03/17 14:32:14;;;;;;;2.67;1.52;;;;;;;;;;5088085;28;20115;-49
2023/03/17 14:34:44;;;;;;;2.78;1.33;;;;;;;;;;5087835;28;20016;-49
2023/03/17 14:37:11;;;;;;;3.40;1.95;;;;;;;;;;5087669;28;20086;-51
2023/03/17 14:39:43;;;;;;;3.83;1.75;;;;;;;;;;5087264;28;20020;-51
2023/03/17 14:42:09;;;;;;;2.67;1.50;;;;;;;;;;5087488;28;20028;-48
2023/03/17 14:44:35;;;;;;;3.03;1.50;;;;;;;;;;5087410;28;20031;-49
2023/03/17 14:47:02;;;;;;;2.17;1.20;;;;;;;;;;5088297;28;20031;-50
2023/03/17 14:49:30;;;;;;;2.03;1.27;;;;;;;;;;5087487;28;20111;-49
2023/03/17 14:51:57;;;;;;;2.47;1.42;;;;;;;;;;5087239;28;20036;-49
2023/03/17 14:54:28;;;;;;;2.30;1.35;;;;;;;;;;5087009;28;20031;-49
2023/03/17 14:57:15;;;;;;;1.92;1.50;;;;;;;;;;5086983;28;20028;-49
2023/03/17 14:59:42;;;;;;;4.63;1.50;;;;;;;;;;5087094;28;20020;-49
2023/03/17 15:02:14;;;;;;;3.83;1.80;;;;;;;;;;5087235;28;20028;-48
2023/03/17 15:04:48;;;;;;;5.30;1.70;;;;;;;;;;5068934;28;20492;-48
2023/03/17 15:07:29;;;;;;;2.78;1.58;;;;;;;;;;5087104;28;20036;-51
2023/03/17 15:10:00;;;;;;;2.42;1.45;;;;;;;;;;5086819;28;20032;-49
2023/03/17 15:12:27;;;;;;;5.35;1.83;;;;;;;;;;5087111;28;20043;-46
2023/03/17 15:14:57;;;;;;;2.78;1.50;;;;;;;;;;5086208;28;20071;-49
2023/03/17 15:17:28;;;;;;;4.45;1.58;;;;;;;;;;5087353;28;20101;-49
2023/03/17 15:19:56;;;;;;;3.20;1.40;;;;;;;;;;5086851;28;20028;-52
2023/03/17 15:22:24;;;;;;;4.65;1.48;;;;;;;;;;5086782;28;20016;-50
2023/03/17 15:24:50;;;;;;;;;;;;;;;;;;5086995;28;20122;-48
2023/03/17 15:27:17;;;;;;;;;;;;;;;;;;5087237;28;19955;-49
2023/03/17 15:29:43;;;;;;;;;;;;;;;;;;5087217;28;19915;-49
2023/03/17 15:32:09;;;;;;;;;;;;;;;;;;5086719;28;19908;-51
2023/03/17 15:34:35;;;;;;;;;;;;;;;;;;5087024;28;20306;-49
2023/03/17 15:37:02;;;;;;;;;;;;;;;;;;5087399;28;19908;-49
2023/03/17 15:39:28;;;;;;;;;;;;;;;;;;5086821;28;19997;-50
2023/03/17 15:41:54;;;;;;;;;;;;;;;;;;5086837;28;19954;-48
2023/03/17 15:44:20;;;;;;;;;;;;;;;;;;5087270;28;20364;-50
2023/03/17 15:46:46;;;;;;;;;;;;;;;;;;5086801;28;19912;-47
2023/03/17 15:49:12;;;;;;;;;;;;;;;;;;5086980;28;19904;-47
2023/03/17 15:51:38;;;;;;;;;;;;;;;;;;5086598;28;19908;-50
2023/03/17 15:54:05;;;;;;;;;;;;;;;;;;5087138;28;19969;-49
2023/03/17 15:56:31;;;;;;;;;;;;;;;;;;5087204;28;19908;-48
2023/03/17 15:58:57;;;;;;;;;;;;;;;;;;5086692;28;20370;-50
2023/03/17 16:01:22;;;;;;;;;;;;;;;;;;5086533;28;19914;-48
2023/03/17 16:03:48;;;;;;;;;;;;;;;;;;5090161;28;19984;-47
2023/03/17 16:06:14;;;;;;;;;;;;;;;;;;5108092;28;19904;-49
2023/03/17 16:08:40;;;;;;;;;;;;;;;;;;5102642;28;20365;-47
2023/03/17 16:11:08;;;;;;;;;;;;;;;;;;5086323;28;20007;-48
2023/03/17 16:13:34;;;;;;;;;;;;;;;;;;5086326;28;19912;-51
2023/03/17 16:16:04;;;;;;;;;;;;;;;;;;5086472;28;19961;-49
2023/03/17 16:18:31;;;;;;;;;;;;;;;;;;5086319;28;19904;-48
2023/03/17 16:20:58;;;;;;;;;;;;;;;;;;5085994;28;20400;-49
2023/03/17 16:23:25;;;;;;;;;;;;;;;;;;5085998;28;19924;-49
2023/03/17 16:25:50;;;;;;;;;;;;;;;;;;5085848;28;19908;-49
2023/03/17 16:28:16;;;;;;;;;;;;;;;;;;5085742;28;20128;-47
2023/03/17 16:30:42;;;;;;;;;;;;;;;;;;5086210;28;19900;-51
2023/03/17 16:33:08;;;;;;;;;;;;;;;;;;5086117;28;19908;-51
2023/03/17 16:35:34;;;;;;;3.20;1.13;;;;;;;;;;5084775;28;20905;-49
2023/03/17 16:38:00;;;;;;;7.43;1.13;;;;;;;;;;5085109;28;20020;-50
2023/03/17 16:40:33;;;;;;;4.70;2.47;;;;;;;;;;5085632;28;20426;-50
2023/03/17 16:42:59;;;;;;;3.10;1.75;;;;;;;;;;5085148;28;20028;-51
2023/03/17 16:45:27;;;;;;;4.38;1.58;;;;;;;;;;5085695;28;20083;-49
2023/03/17 16:47:54;;;;;;;2.63;1.20;;;;;;;;;;5085248;28;20028;-48
2023/03/17 16:50:21;;;;;;;3.55;1.42;;;;;;;;;;5085351;28;20026;-48
2023/03/17 16:52:47;;;;;;;4.40;1.55;;;;;;;;;;5085053;28;20036;-48
2023/03/17 16:55:14;;;;;;;4.53;1.33;;;;;;;;;;5085868;28;20035;-49
2023/03/17 16:57:41;;;;;;;3.50;1.70;;;;;;;;;;5085708;28;20024;-51
2023/03/17 17:00:08;;;;;;;1.88;1.38;;;;;;;;;;5085336;28;20024;-48
2023/03/17 17:02:35;;;;;;;2.70;1.80;;;;;;;;;;5085126;28;20024;-47
2023/03/17 17:05:01;;;;;;;3.13;2.13;;;;;;;;;;5085190;28;20466;-48
2023/03/17 17:07:27;;;;;;;4.63;2.13;;;;;;;;;;5085269;28;20020;-48
2023/03/17 17:09:53;;;;;;;3.10;1.48;;;;;;;;;;5085427;28;20553;-48
2023/03/17 17:12:19;;;;;;;2.67;1.73;;;;;;;;;;5084813;28;20068;-48
2023/03/17 17:14:45;;;;;;;3.92;1.80;;;;;;;;;;5086158;28;20511;-47
2023/03/17 17:17:12;;;;;;;4.75;1.30;;;;;;;;;;5084974;28;20025;-48
2023/03/17 17:19:39;;;;;;;2.58;1.45;;;;;;;;;;5085141;28;20020;-48
2023/03/17 17:22:05;;;;;;;3.88;1.40;;;;;;;;;;5084941;28;20376;-47
2023/03/17 17:24:32;;;;;;;2.67;1.20;;;;;;;;;;5085262;28;20027;-49
2023/03/17 17:26:58;;;;;;;3.95;1.90;;;;;;;;;;5085019;28;20067;-49
2023/03/17 17:29:25;;;;;;;4.03;1.30;;;;;;;;;;5083907;28;20449;-46
2023/03/17 17:31:51;;;;;;;2.92;1.52;;;;;;;;;;5085211;28;20450;-48
2023/03/17 17:34:17;;;;;;;5.40;1.45;;;;;;;;;;5085134;28;20111;-48
2023/03/17 17:36:44;;;;;;;3.67;1.98;;;;;;;;;;5085337;28;20028;-49
2023/03/17 17:39:11;;;;;;;3.92;1.55;;;;;;;;;;5086911;28;20028;-49
2023/03/17 17:41:37;;;;;;;6.53;1.50;;;;;;;;;;5089107;28;20112;-49
2023/03/17 17:44:04;;;;;;;5.03;1.20;;;;;;;;;;5088720;28;20106;-51
2023/03/17 17:46:30;;;;;;;4.05;1.38;;;;;;;;;;5088721;28;20028;-49
2023/03/17 17:48:56;;;;;;;1.98;1.20;;;;;;;;;;5088765;28;20469;-50
2023/03/17 17:51:23;;;;;;;4.10;1.30;;;;;;;;;;5088321;28;20487;-49
2023/03/17 17:53:50;;;;;;;3.35;1.38;;;;;;;;;;5088372;28;20035;-48
2023/03/17 17:56:17;;;;;;;2.97;1.20;;;;;;;;;;5088958;28;20039;-51
2023/03/17 17:58:45;;;;;;;2.30;1.38;;;;;;;;;;5088939;28;20529;-49
2023/03/17 18:01:12;;;;;;;3.45;1.20;;;;;;;;;;5088130;28;20027;-49
2023/03/17 18:03:40;;;;;;;2.78;1.10;;;;;;;;;;5099431;28;20026;-48
2023/03/17 18:06:06;;;;;;;4.28;1.30;;;;;;;;;;5108867;28;20087;-48
2023/03/17 18:08:33;;;;;;;3.95;1.27;;;;;;;;;;5097368;28;20092;-48
2023/03/17 18:11:00;;;;;;;2.90;1.20;;;;;;;;;;5088177;28;20430;-51
2023/03/17 18:13:26;;;;;;;2.67;1.17;;;;;;;;;;5087921;28;20074;-48
2023/03/17 18:15:52;;;;;;;4.50;1.90;;;;;;;;;;5088312;28;20024;-50
2023/03/17 18:18:18;;;;;;;5.28;1.98;;;;;;;;;;5088860;28;20028;-52
2023/03/17 18:20:44;;;;;;;2.65;1.90;;;;;;;;;;5088633;28;20087;-50
2023/03/17 18:23:11;;;;;;;2.97;1.50;;;;;;;;;;5087603;28;20034;-50
2023/03/17 18:25:37;;;;;;;3.35;1.65;;;;;;;;;;5087913;28;20028;-49
2023/03/17 18:28:03;;;;;;;3.08;1.38;;;;;;;;;;5087926;28;20107;-49
2023/03/17 18:30:30;;;;;;;2.22;1.10;;;;;;;;;;5087771;28;20507;-52
2023/03/17 18:33:04;;;;;;;3.90;1.25;;;;;;;;;;5087785;28;20206;-49
2023/03/17 18:35:30;;;;;;;;;;;;;;;;;;5088150;28;20031;-48
2023/03/17 18:37:56;;;;;;;4.55;1.40;;;;;;;;;;5087606;28;19904;-48
2023/03/17 18:40:23;;;;;;;2.90;1.20;;;;;;;;;;5087606;28;20032;-49
2023/03/17 18:42:50;;;;;;;2.72;1.23;;;;;;;;;;5087748;28;20069;-47
2023/03/17 18:45:16;;;;;;;3.38;1.30;;;;;;;;;;5088144;28;20028;-49
2023/03/17 18:47:42;;;;;;;3.35;1.40;;;;;;;;;;5087551;28;20016;-50
2023/03/17 18:50:10;;;;;;;3.10;1.20;;;;;;;;;;5086439;28;20024;-49
2023/03/17 18:52:38;;;;;;;3.35;1.17;;;;;;;;;;5087059;28;20097;-47
2023/03/17 18:55:04;;;;;;;3.53;1.48;;;;;;;;;;5087173;28;20028;-50
2023/03/17 18:57:30;;;;;;;3.22;1.20;;;;;;;;;;5087341;28;20027;-48
2023/03/17 18:59:56;;;;;;;2.35;1.23;;;;;;;;;;5087000;28;20024;-50
2023/03/17 19:02:22;;;;;;;1.58;0.88;;;;;;;;;;5087127;28;20027;-49
2023/03/17 19:04:49;;;;;;;2.03;1.17;;;;;;;;;;5087780;28;20021;-50
2023/03/17 19:07:15;;;;;;;6.15;1.50;;;;;;;;;;5087723;28;20407;-51
2023/03/17 19:09:41;;;;;;;4.30;1.17;;;;;;;;;;5087072;28;20032;-47
2023/03/17 19:12:08;;;;;;;2.08;1.20;;;;;;;;;;5086690;28;20032;-49
2023/03/17 19:14:35;;;;;;;1.75;0.85;;;;;;;;;;5086845;28;20036;-47
2023/03/17 19:17:01;;;;;;;1.88;1.00;;;;;;;;;;5087291;28;20077;-47
2023/03/17 19:19:28;;;;;;;3.03;1.15;;;;;;;;;;5086811;28;20032;-48
2023/03/17 19:21:55;;;;;;;2.33;1.20;;;;;;;;;;5086631;28;20016;-48
2023/03/17 19:24:21;;;;;;;4.20;1.63;;;;;;;;;;5086947;28;20085;-47
2023/03/17 19:26:47;;;;;;;2.10;1.08;;;;;;;;;;5087359;28;20028;-49
2023/03/17 19:29:13;;;;;;;2.08;1.00;;;;;;;;;;5086617;28;20108;-49
2023/03/17 19:31:40;;;;;;;1.75;1.20;;;;;;;;;;5086597;28;20038;-49
2023/03/17 19:34:07;;;;;;;1.38;0.93;;;;;;;;;;5086847;28;20507;-49
2023/03/17 19:36:38;;;;;;;5.90;1.48;;;;;;;;;;5086676;28;20067;-48
2023/03/17 19:39:05;;;;;;;2.75;1.23;;;;;;;;;;5086555;28;20020;-48
2023/03/17 19:41:31;;;;;;;3.65;1.08;;;;;;;;;;5086506;28;20462;-47
2023/03/17 19:43:58;;;;;;;3.28;1.20;;;;;;;;;;5086374;28;20103;-47
2023/03/17 19:46:24;;;;;;;3.38;1.33;;;;;;;;;;5086330;28;20027;-48
2023/03/17 19:48:50;;;;;;;3.63;1.35;;;;;;;;;;5086575;28;20032;-48
2023/03/17 19:51:17;;;;;;;2.38;1.20;;;;;;;;;;5086864;28;20059;-47
2023/03/17 19:53:43;;;;;;;3.78;1.15;;;;;;;;;;5086295;28;20106;-48
2023/03/17 19:56:09;;;;;;;3.60;1.30;;;;;;;;;;5086301;28;20457;-47
2023/03/17 19:58:36;;;;;;;4.60;1.33;;;;;;;;;;5085862;28;20046;-47
2023/03/17 20:01:03;;;;;;;3.35;1.10;;;;;;;;;;5085933;28;20073;-49
2023/03/17 20:03:30;;;;;;;3.42;1.67;;;;;;;;;;5085924;28;20028;-50
2023/03/17 20:05:56;;;;;;;4.10;1.88;;;;;;;;;;5085810;28;20024;-47
2023/03/17 20:08:23;;;;;;;5.95;1.75;;;;;;;;;;5095614;28;20024;-49
2023/03/17 20:10:52;;;;;;;1.88;1.20;;;;;;;;;;5106116;28;20024;-48